Time;durP1;ratioP1;P1;durP2;ratioP2;P2;SDS_P1;SDS_P2;PMS_P1;PMS_P2;Temp;Humidity;BMP_temperature;BMP_pressure;BME280_temperature;BME280_humidity;BME280_pressure;Samples;Min_cycle;Max_cycle;Signal;HPM_P1;HPM_P2
2022/06/15 04:15:32;;;;;;;7.35;3.95;;;;;;;12.88;80.25;100896.78;5559072;32;162582;-88
2022/06/15 04:18:36;;;;;;;5.95;3.42;;;;;;;12.92;78.65;100901.87;5544024;32;34384;-88
2022/06/15 04:21:39;;;;;;;3.50;3.20;;;;;;;13.00;77.62;100898.81;5544777;32;35069;-86
2022/06/15 04:24:43;;;;;;;4.10;3.20;;;;;;;13.10;76.30;100896.53;5543767;32;35005;-86
2022/06/15 04:27:46;;;;;;;5.78;3.00;;;;;;;13.18;76.38;100901.47;5543843;32;34541;-86
2022/06/15 04:30:49;;;;;;;3.62;3.30;;;;;;;13.31;76.90;100896.34;5543666;32;34441;-86
2022/06/15 04:33:55;;;;;;;5.18;2.90;;;;;;;13.43;75.57;100897.50;5544294;32;33787;-86
2022/06/15 04:36:58;;;;;;;4.03;3.00;;;;;;;13.84;72.70;100886.41;5543904;32;34360;-86
2022/06/15 04:40:04;;;;;;;5.25;3.30;;;;;;;14.05;71.43;100894.19;5543934;32;33977;-86
2022/06/15 04:43:08;;;;;;;3.08;2.65;;;;;;;14.18;70.84;100893.50;5543791;32;33540;-87
2022/06/15 04:46:11;;;;;;;3.47;2.90;;;;;;;14.35;71.37;100895.19;5544921;32;33722;-86
2022/06/15 04:49:16;;;;;;;6.35;3.40;;;;;;;14.40;71.14;100893.97;5542639;32;32718;-86
2022/06/15 04:52:19;;;;;;;2.87;2.67;;;;;;;14.43;71.26;100898.25;5544429;32;34390;-86
2022/06/15 04:55:24;;;;;;;3.97;2.67;;;;;;;14.88;68.67;100903.69;5534837;32;34263;-86
2022/06/15 04:58:30;;;;;;;3.15;2.70;;;;;;;14.96;66.96;100903.25;5535339;32;33905;-85
2022/06/15 05:01:34;;;;;;;3.12;2.80;;;;;;;15.00;67.48;100904.78;5531971;32;33701;-86
2022/06/15 05:04:37;;;;;;;12.13;3.10;;;;;;;15.13;67.71;100902.22;5539801;32;33581;-86
2022/06/15 05:07:41;;;;;;;4.50;2.78;;;;;;;15.45;67.05;100896.72;5535126;32;33833;-86
2022/06/15 05:10:44;;;;;;;3.60;2.72;;;;;;;15.78;65.48;100900.03;5523767;32;34291;-87
2022/06/15 05:13:46;;;;;;;3.70;2.85;;;;;;;16.15;64.78;100904.87;5523581;32;34032;-86
2022/06/15 05:16:49;;;;;;;3.10;2.60;;;;;;;16.40;63.45;100901.44;5525252;32;34007;-86
2022/06/15 05:19:52;;;;;;;16.50;2.67;;;;;;;17.70;60.30;100901.59;5531578;32;33957;-87
2022/06/15 05:22:57;;;;;;;20.90;3.30;;;;;;;21.61;47.82;100899.62;5542623;32;34218;-86
2022/06/15 05:26:01;;;;;;;5.07;2.40;;;;;;;24.93;39.29;100904.50;5532606;32;33134;-87
2022/06/15 05:29:06;;;;;;;7.62;2.12;;;;;;;28.28;33.66;100905.44;5529956;32;33984;-87
2022/06/15 05:32:15;;;;;;;7.80;2.08;;;;;;;31.62;28.21;100915.37;5529912;32;33991;-87
2022/06/15 05:35:18;;;;;;;3.90;1.95;;;;;;;33.15;25.70;100906.81;5531832;32;34328;-87
2022/06/15 05:38:21;;;;;;;6.00;2.20;;;;;;;33.95;24.72;100904.87;5515087;32;33468;-88
2022/06/15 05:41:24;;;;;;;4.32;2.03;;;;;;;35.06;22.11;100898.16;5511178;32;33959;-87
2022/06/15 05:44:46;;;;;;;4.05;1.90;;;;;;;35.66;20.61;100901.34;5528281;32;35323;-91
2022/06/15 05:47:48;;;;;;;3.08;2.00;;;;;;;36.39;20.59;100895.00;5529602;32;33872;-88
2022/06/15 05:50:58;;;;;;;7.85;2.10;;;;;;;36.86;19.96;100897.03;5527266;32;34480;-88
2022/06/15 05:54:01;;;;;;;3.53;1.85;;;;;;;37.98;18.86;100907.16;5528425;32;33015;-88
2022/06/15 05:57:23;;;;;;;1.62;1.50;;;;;;;37.92;18.90;100902.63;5525783;32;34218;-88
2022/06/15 06:00:26;;;;;;;2.47;2.00;;;;;;;38.14;18.14;100907.47;5511522;32;33836;-91
2022/06/15 06:03:29;;;;;;;4.28;2.15;;;;;;;37.89;18.35;100909.50;5511265;32;34435;-88
2022/06/15 06:06:32;;;;;;;9.23;2.37;;;;;;;37.71;18.78;100904.16;5508571;32;33299;-88
2022/06/15 06:09:36;;;;;;;6.05;1.92;;;;;;;38.27;18.42;100904.38;5509476;32;34506;-88
2022/06/15 06:12:39;;;;;;;6.35;2.00;;;;;;;38.61;17.45;100909.13;5518655;32;34081;-88
2022/06/15 06:15:42;;;;;;;4.70;2.30;;;;;;;38.02;17.67;100904.75;5509105;32;35706;-88
2022/06/15 06:18:45;;;;;;;14.25;3.12;;;;;;;37.04;18.70;100903.50;5509209;32;33835;-88
2022/06/15 06:21:48;;;;;;;8.10;2.40;;;;;;;38.85;17.27;100908.13;5509347;32;34602;-88
2022/06/15 06:24:50;;;;;;;4.78;2.10;;;;;;;37.85;18.85;100910.25;5515616;32;34507;-87
2022/06/15 06:27:53;;;;;;;8.65;2.22;;;;;;;38.00;18.58;100918.81;5523125;32;34166;-87
2022/06/15 06:30:57;;;;;;;3.67;2.15;;;;;;;38.87;17.27;100911.47;5513946;32;34366;-87
2022/06/15 06:34:00;;;;;;;4.05;1.85;;;;;;;37.79;16.66;100914.00;5522736;32;34535;-87
2022/06/15 06:37:05;;;;;;;5.03;1.70;;;;;;;36.76;17.76;100916.13;5522228;32;33637;-86
2022/06/15 06:40:13;;;;;;;3.42;1.80;;;;;;;36.76;18.17;100908.69;5526873;32;34333;-88
2022/06/15 06:43:15;;;;;;;6.45;1.90;;;;;;;35.90;18.96;100914.41;5517745;32;34167;-87
2022/06/15 06:46:18;;;;;;;7.80;2.62;;;;;;;33.68;20.53;100917.91;5519009;32;33634;-89
2022/06/15 06:49:22;;;;;;;2.72;1.90;;;;;;;32.29;22.36;100909.31;5509841;32;34346;-87
2022/06/15 06:52:25;;;;;;;5.32;1.80;;;;;;;31.46;22.19;100914.66;5511012;32;34915;-87
2022/06/15 06:55:28;;;;;;;8.52;2.30;;;;;;;29.42;25.43;100915.50;5516814;32;32266;-87
2022/06/15 06:58:31;;;;;;;6.93;2.37;;;;;;;29.45;26.03;100911.56;5513028;32;34551;-90
2022/06/15 07:01:38;;;;;;;19.30;2.90;;;;;;;28.92;26.29;100905.09;5525517;32;32302;-90
2022/06/15 07:04:41;;;;;;;5.30;2.40;;;;;;;27.95;28.28;100904.56;5526690;32;34213;-90
2022/06/15 07:11:29;;;;;;;5.35;1.98;;;;;;;27.48;28.53;100919.91;4785954;29;20104;-89
2022/06/15 07:25:37;;;;;;;4.70;2.10;;;;;;;26.69;28.96;100918.63;5617403;26;33748;-90
2022/06/15 07:28:41;;;;;;;5.45;2.50;;;;;;;26.49;29.64;100913.53;5601971;26;33641;-90
2022/06/15 07:31:54;;;;;;;4.43;2.47;;;;;;;27.09;29.65;100913.34;5562734;32;34478;-88
2022/06/15 07:34:57;;;;;;;6.53;2.22;;;;;;;27.34;28.80;100915.19;5542246;32;32333;-88
2022/06/15 07:37:59;;;;;;;9.38;2.47;;;;;;;26.65;29.55;100917.28;5549052;32;33744;-88
2022/06/15 07:41:24;;;;;;;5.72;2.30;;;;;;;26.84;29.06;100918.78;5550030;32;33704;-86
2022/06/15 07:44:27;;;;;;;9.88;2.80;;;;;;;26.78;29.34;100908.59;5554106;32;34120;-84
2022/06/15 07:50:53;;;;;;;40.15;4.55;;;;;;;27.57;28.10;100910.69;5565500;32;34687;-86
2022/06/15 07:53:57;;;;;;;3.83;2.30;;;;;;;27.06;29.70;100907.41;5554000;32;34460;-85
2022/06/15 07:57:00;;;;;;;4.45;2.25;;;;;;;27.67;27.65;100899.62;5535661;32;32565;-85
2022/06/15 08:00:06;;;;;;;2.85;2.20;;;;;;;26.88;28.71;100898.37;5553752;32;33594;-88
2022/06/15 08:03:15;;;;;;;2.92;2.05;;;;;;;27.23;29.13;100905.50;5559550;32;34065;-89
2022/06/15 08:06:18;;;;;;;3.05;2.03;;;;;;;28.26;27.07;100905.63;5569444;32;34521;-86
2022/06/15 08:09:21;;;;;;;13.60;2.55;;;;;;;28.52;26.68;100899.78;5567860;32;34818;-86
2022/06/15 08:12:23;;;;;;;7.82;2.40;;;;;;;28.58;27.03;100905.56;5563368;32;34909;-86
2022/06/15 08:15:26;;;;;;;3.70;2.50;;;;;;;28.72;26.73;100906.62;5568270;32;34505;-84
2022/06/15 08:18:33;;;;;;;3.80;2.20;;;;;;;28.72;25.54;100899.31;5554004;32;33665;-85
2022/06/15 08:21:37;;;;;;;2.83;2.53;;;;;;;28.34;26.01;100891.94;5564134;32;33813;-86
2022/06/15 08:24:41;;;;;;;2.90;2.05;;;;;;;28.52;26.46;100899.78;5567127;32;34017;-84
2022/06/15 08:27:45;;;;;;;2.40;2.05;;;;;;;28.19;26.63;100905.47;5539907;32;32368;-85
2022/06/15 08:30:49;;;;;;;8.05;2.60;;;;;;;28.71;26.43;100899.50;5551430;32;33706;-84
2022/06/15 08:33:52;;;;;;;2.00;1.80;;;;;;;29.43;25.17;100900.84;5560321;32;33891;-84
2022/06/15 08:36:56;;;;;;;4.78;2.03;;;;;;;29.35;25.18;100902.81;5554102;32;34835;-85
2022/06/15 08:39:59;;;;;;;3.45;2.05;;;;;;;29.39;25.24;100899.50;5551560;32;35215;-86
2022/06/15 08:43:14;;;;;;;2.35;2.15;;;;;;;29.33;25.10;100906.56;5548529;32;35337;-86
2022/06/15 08:46:20;;;;;;;3.25;2.20;;;;;;;29.38;25.87;100902.44;5554937;32;33757;-83
2022/06/15 08:49:52;;;;;;;4.70;1.98;;;;;;;30.65;22.53;100899.50;5552373;32;34131;-83
2022/06/15 08:53:10;;;;;;;4.87;2.33;;;;;;;30.30;23.14;100889.28;5552140;32;35031;-87
2022/06/15 08:56:30;;;;;;;6.40;1.95;;;;;;;30.84;23.79;100888.94;5557117;32;34292;-84
2022/06/15 08:59:43;;;;;;;2.65;2.03;;;;;;;31.79;22.09;100885.72;5556615;32;34518;-84
2022/06/15 09:03:45;;;;;;;4.37;2.10;;;;;;;31.88;21.56;100878.19;5554953;32;34391;-85
2022/06/15 09:06:57;;;;;;;4.65;2.10;;;;;;;32.26;20.79;100885.88;5540655;32;33743;-85
2022/06/15 09:10:28;;;;;;;2.58;1.85;;;;;;;32.17;21.71;100889.03;5565310;32;34330;-84
2022/06/15 09:13:33;;;;;;;5.10;1.90;;;;;;;32.27;20.69;100883.94;5570935;32;35016;-84
2022/06/15 09:17:01;;;;;;;4.95;2.97;;;;;;;30.66;21.72;100880.16;5566220;32;34227;-84
2022/06/15 09:20:13;;;;;;;3.70;1.95;;;;;;;30.07;23.46;100889.44;5575116;32;33509;-84
2022/06/15 09:23:27;;;;;;;4.45;2.00;;;;;;;30.74;22.64;100883.81;5570887;32;34104;-85
2022/06/15 09:26:49;;;;;;;2.42;2.17;;;;;;;30.86;22.52;100882.22;5555817;32;34606;-85
2022/06/15 09:29:58;;;;;;;2.15;1.95;;;;;;;31.90;21.33;100869.72;5560520;32;34895;-85
2022/06/15 09:33:16;;;;;;;3.33;2.30;;;;;;;32.40;21.17;100870.28;5556420;32;34201;-84
2022/06/15 09:36:23;;;;;;;3.72;2.30;;;;;;;32.03;20.81;100872.53;5560517;32;34453;-85
2022/06/15 09:39:28;;;;;;;5.15;2.40;;;;;;;30.63;21.55;100872.31;5564042;32;34648;-84
2022/06/15 09:42:48;;;;;;;9.85;2.05;;;;;;;31.27;21.89;100880.63;5556951;32;34173;-84
2022/06/15 09:46:13;;;;;;;;;;;;;;;31.37;21.92;100873.94;5553343;32;34127;-84
2022/06/15 09:49:44;;;;;;;8.15;1.98;;;;;;;31.51;21.84;100872.13;5552742;32;34508;-84
2022/06/15 09:52:59;;;;;;;3.30;1.95;;;;;;;31.17;21.29;100870.00;5555996;32;35541;-89
2022/06/15 09:56:07;;;;;;;4.90;1.67;;;;;;;30.62;21.93;100873.34;5565261;32;34360;-86
2022/06/15 09:59:21;;;;;;;4.50;2.17;;;;;;;32.39;20.64;100870.47;5569150;32;33984;-85
2022/06/15 10:02:31;;;;;;;13.13;2.85;;;;;;;33.00;19.83;100868.59;5569235;32;34367;-86
2022/06/15 10:05:39;;;;;;;3.17;1.80;;;;;;;32.82;20.66;100863.72;5553167;32;34107;-85
2022/06/15 10:08:42;;;;;;;1.90;1.80;;;;;;;33.28;19.75;100859.22;5553755;32;34344;-85
2022/06/15 10:11:50;;;;;;;3.55;1.85;;;;;;;33.06;19.15;100850.41;5553937;32;34584;-84
2022/06/15 10:15:04;;;;;;;2.70;1.77;;;;;;;32.67;19.72;100851.06;5561044;32;34024;-85
2022/06/15 10:18:43;;;;;;;2.00;1.58;;;;;;;32.89;19.70;100849.97;5543899;32;32553;-85
2022/06/15 10:21:53;;;;;;;5.03;1.58;;;;;;;33.50;18.75;100838.81;5565956;32;34430;-86
2022/06/15 10:24:58;;;;;;;3.08;2.53;;;;;;;33.55;17.37;100845.41;5558127;32;34605;-87
2022/06/15 10:28:13;;;;;;;3.53;1.60;;;;;;;34.99;16.67;100841.41;5565311;32;34336;-87
2022/06/15 10:31:25;;;;;;;3.80;1.80;;;;;;;35.27;15.74;100835.38;5541719;32;33634;-85
2022/06/15 10:34:46;;;;;;;4.37;1.80;;;;;;;33.65;16.91;100828.44;5545639;32;33334;-84
2022/06/15 10:37:52;;;;;;;4.00;2.15;;;;;;;32.88;19.37;100829.91;5561118;32;34929;-86
2022/06/15 10:44:28;;;;;;;3.97;1.55;;;;;;;32.42;18.89;100826.16;5549366;32;33914;-85
2022/06/15 10:47:42;;;;;;;;;;;;;;;32.18;19.89;100814.69;5554956;31;33695;-85
2022/06/15 10:51:17;;;;;;;1.45;1.35;;;;;;;32.37;18.76;100809.44;5557440;32;34538;-84
2022/06/15 11:04:46;;;;;;;3.72;1.70;;;;;;;30.99;21.16;100803.94;5555531;31;33765;-86
2022/06/15 11:08:01;;;;;;;1.50;1.40;;;;;;;32.07;18.86;100798.88;5542323;32;33127;-85
2022/06/15 11:11:26;;;;;;;2.85;1.85;;;;;;;31.68;20.56;100802.13;5562694;31;35371;-85
2022/06/15 11:14:34;;;;;;;2.97;1.80;;;;;;;29.99;22.00;100803.75;5556335;31;33340;-85
2022/06/15 11:21:06;;;;;;;1.80;1.67;;;;;;;29.62;23.14;100796.63;5557292;32;33960;-83
2022/06/15 11:24:28;;;;;;;3.50;1.67;;;;;;;29.23;22.72;100798.63;5553600;31;34011;-84
2022/06/15 11:27:44;;;;;;;2.85;1.62;;;;;;;28.96;24.11;100793.63;5568434;31;33677;-84
2022/06/15 11:31:01;;;;;;;7.75;2.10;;;;;;;29.67;23.56;100786.78;5563648;31;34750;-84
2022/06/15 11:34:14;;;;;;;6.62;2.03;;;;;;;28.68;24.00;100782.50;5544322;32;34679;-83
2022/06/15 11:37:24;;;;;;;4.37;1.55;;;;;;;29.15;23.33;100778.56;5555334;31;33594;-87
2022/06/15 11:40:49;;;;;;;4.65;1.87;;;;;;;29.56;23.23;100773.66;5549478;32;34555;-84
2022/06/15 11:43:55;;;;;;;2.92;1.80;;;;;;;29.70;22.94;100766.41;5537895;32;34662;-86
2022/06/15 11:47:31;;;;;;;4.85;2.03;;;;;;;29.80;24.43;100764.22;5565451;32;34355;-86
2022/06/15 11:50:42;;;;;;;2.33;1.70;;;;;;;29.98;23.37;100765.66;5553799;32;34497;-86
2022/06/15 11:54:02;;;;;;;1.80;1.70;;;;;;;29.58;23.07;100750.53;5548623;32;32820;-86
2022/06/15 11:57:23;;;;;;;5.47;1.90;;;;;;;30.07;24.00;100756.25;5551381;32;32637;-85
2022/06/15 12:00:41;;;;;;;4.47;2.10;;;;;;;29.81;23.18;100754.97;5567167;32;33788;-84
2022/06/15 12:04:08;;;;;;;4.62;1.80;;;;;;;29.44;23.54;100754.12;5566305;32;33882;-85
2022/06/15 12:07:19;;;;;;;1.92;1.80;;;;;;;29.35;24.77;100755.28;5567037;31;34444;-88
2022/06/15 12:10:30;;;;;;;3.95;2.35;;;;;;;30.00;23.53;100752.63;5550218;32;34389;-89
2022/06/15 12:13:53;;;;;;;3.33;2.15;;;;;;;29.64;24.36;100746.19;5543159;32;33905;-85
2022/06/15 12:17:09;;;;;;;6.28;2.33;;;;;;;29.74;23.52;100743.13;5554508;31;34927;-84
2022/06/15 12:20:41;;;;;;;6.75;2.17;;;;;;;29.28;24.13;100747.88;5553690;32;33803;-84
2022/06/15 12:24:07;;;;;;;3.95;2.10;;;;;;;29.04;24.42;100746.28;5552423;31;34157;-83
2022/06/15 12:27:34;;;;;;;5.15;2.28;;;;;;;28.81;24.96;100757.28;5570102;31;33949;-84
2022/06/15 12:30:46;;;;;;;4.10;2.17;;;;;;;28.85;24.84;100737.59;5544621;32;33701;-84
2022/06/15 12:33:58;;;;;;;5.25;2.33;;;;;;;29.13;24.47;100747.03;5564790;32;33974;-84
2022/06/15 12:37:29;;;;;;;2.72;2.28;;;;;;;28.99;24.88;100737.81;5561973;31;34405;-84
2022/06/15 12:40:38;;;;;;;4.20;1.90;;;;;;;28.91;24.22;100734.16;5562101;31;34309;-85
2022/06/15 12:43:44;;;;;;;7.97;2.25;;;;;;;28.93;24.86;100733.97;5557939;31;35260;-84
2022/06/15 12:46:48;;;;;;;3.78;2.15;;;;;;;27.84;25.80;100728.66;5565815;31;34264;-84
2022/06/15 12:50:25;;;;;;;3.65;1.92;;;;;;;28.40;25.49;100728.56;5547957;32;34156;-83
2022/06/15 12:53:39;;;;;;;2.80;2.00;;;;;;;28.75;25.08;100724.25;5560714;31;33988;-84
2022/06/15 12:57:00;;;;;;;7.40;2.70;;;;;;;28.47;25.03;100721.31;5568557;32;34809;-84
2022/06/15 13:00:43;;;;;;;12.75;3.35;;;;;;;27.55;27.12;100721.19;5551280;31;33412;-85
2022/06/15 13:03:45;;;;;;;3.33;2.47;;;;;;;28.25;26.54;100723.91;5561977;32;34225;-85
2022/06/15 13:07:18;;;;;;;1.90;1.80;;;;;;;28.05;26.44;100712.66;5568794;31;34472;-85
2022/06/15 13:10:25;;;;;;;4.00;2.05;;;;;;;27.55;26.56;100724.75;5568241;32;35217;-86
2022/06/15 13:13:57;;;;;;;3.58;2.50;;;;;;;27.71;26.58;100721.09;5565451;32;33975;-86
2022/06/15 13:17:08;;;;;;;2.35;1.92;;;;;;;28.16;25.81;100720.38;5538047;32;34131;-87
2022/06/15 13:20:12;;;;;;;4.05;2.10;;;;;;;28.16;26.23;100719.56;5563493;32;34660;-86
2022/06/15 13:23:35;;;;;;;3.55;2.12;;;;;;;27.48;26.26;100712.03;5564860;32;34661;-86
2022/06/15 13:26:38;;;;;;;5.00;2.92;;;;;;;27.32;25.44;100711.09;5553853;32;33913;-85
2022/06/15 13:29:51;;;;;;;3.85;2.30;;;;;;;26.96;26.39;100712.47;5565841;32;34495;-88
2022/06/15 13:33:09;;;;;;;2.58;1.90;;;;;;;26.65;26.81;100707.81;5562657;32;33994;-88
2022/06/15 13:36:12;;;;;;;2.60;2.00;;;;;;;27.32;27.35;100711.09;5564534;31;34852;-88
2022/06/15 13:39:45;;;;;;;3.33;1.80;;;;;;;27.11;26.45;100711.72;5550986;32;33948;-87
2022/06/15 13:42:55;;;;;;;1.62;1.52;;;;;;;27.13;27.12;100713.25;5550753;32;33412;-88
2022/06/15 13:46:00;;;;;;;3.08;1.50;;;;;;;27.30;26.13;100703.09;5554992;32;34489;-91
2022/06/15 13:49:23;;;;;;;2.80;1.58;;;;;;;26.77;25.99;100695.50;5555715;32;33415;-88
2022/06/15 13:52:30;;;;;;;2.25;1.27;;;;;;;26.75;26.88;100692.09;5570267;32;34322;-89
2022/06/15 13:55:59;;;;;;;1.50;1.40;;;;;;;27.09;26.85;100681.94;5555564;32;33552;-87
2022/06/15 13:59:11;;;;;;;1.58;1.17;;;;;;;27.17;26.32;100681.91;5573556;32;33934;-87
2022/06/15 14:02:26;;;;;;;2.35;1.23;;;;;;;27.29;25.57;100681.50;5571388;32;34122;-88
2022/06/15 14:05:49;;;;;;;1.37;1.20;;;;;;;27.62;24.74;100681.31;5559228;32;33560;-87
2022/06/15 14:09:29;;;;;;;2.10;1.02;;;;;;;27.63;24.83;100677.56;5542298;32;34707;-89
2022/06/15 14:13:03;;;;;;;1.40;1.30;;;;;;;27.31;24.65;100679.47;5564005;32;33655;-88
2022/06/15 14:16:48;;;;;;;3.95;1.58;;;;;;;27.34;24.83;100673.63;5548757;32;33153;-89
2022/06/15 14:19:59;;;;;;;1.90;1.00;;;;;;;27.42;24.73;100673.59;5551128;32;34313;-90
2022/06/15 14:23:06;;;;;;;1.73;1.10;;;;;;;27.23;24.26;100671.31;5551959;32;34077;-87
2022/06/15 14:26:29;;;;;;;4.53;1.42;;;;;;;27.61;24.47;100671.47;5573309;26;34010;-88
2022/06/15 14:37:10;;;;;;;2.28;1.20;;;;;;;27.54;23.65;100667.72;5384319;29;20413;-88
2022/06/15 14:40:43;;;;;;;1.58;1.20;;;;;;;27.30;23.72;100669.59;5553165;32;33591;-87
2022/06/15 14:43:50;;;;;;;3.37;1.00;;;;;;;27.44;24.11;100660.63;5553765;32;35370;-87
2022/06/15 14:46:59;;;;;;;1.10;1.02;;;;;;;27.75;23.95;100663.50;5569278;32;33890;-86
2022/06/15 14:50:02;;;;;;;0.90;0.90;;;;;;;27.67;23.06;100662.56;5546481;32;32445;-87
2022/06/15 14:53:06;;;;;;;1.95;1.12;;;;;;;27.31;23.91;100654.94;5563054;32;34445;-88
2022/06/15 14:56:10;;;;;;;2.20;1.00;;;;;;;27.12;25.21;100657.09;5569607;32;33737;-88
2022/06/15 14:59:17;;;;;;;2.80;1.30;;;;;;;27.24;25.09;100652.09;5562780;32;33914;-87
2022/06/15 15:02:20;;;;;;;5.65;1.20;;;;;;;27.39;24.23;100654.88;5569644;32;33915;-87
2022/06/15 15:05:30;;;;;;;2.17;1.12;;;;;;;27.32;24.50;100653.91;5570564;32;34723;-88
2022/06/15 15:08:34;;;;;;;2.20;1.13;;;;;;;27.07;24.39;100645.91;5570309;31;34023;-88
2022/06/15 15:11:39;;;;;;;2.15;1.00;;;;;;;26.76;24.82;100641.28;5570652;31;33755;-89
2022/06/15 15:14:53;;;;;;;4.12;1.33;;;;;;;26.70;25.25;100636.53;5573789;32;34309;-88
2022/06/15 15:18:08;;;;;;;1.33;0.73;;;;;;;26.40;25.37;100637.13;5566506;32;33928;-88
2022/06/15 15:21:34;;;;;;;1.15;0.98;;;;;;;26.97;24.79;100635.25;5576113;32;34804;-88
2022/06/15 15:25:03;;;;;;;2.45;1.02;;;;;;;27.10;24.85;100636.53;5575800;32;34779;-90
2022/06/15 15:35:06;;;;;;;1.95;1.33;;;;;;;26.71;26.26;100630.06;5568710;32;34443;-88
2022/06/15 15:38:12;;;;;;;1.50;1.10;;;;;;;26.36;24.76;100620.31;5568329;32;33692;-88
2022/06/15 15:41:15;;;;;;;4.07;1.27;;;;;;;26.34;25.93;100629.66;5568803;32;33884;-89
2022/06/15 15:44:17;;;;;;;1.65;1.15;;;;;;;26.54;24.81;100623.84;5576665;32;33940;-88
2022/06/15 15:47:20;;;;;;;0.90;0.90;;;;;;;26.35;24.53;100617.78;5580945;32;34999;-86
2022/06/15 15:50:24;;;;;;;2.25;0.93;;;;;;;26.16;24.81;100619.00;5567896;32;33484;-85
